createdAt,value
2018-10-12T00:01:16.987Z,45.40
2018-10-12T00:03:49.396Z,45.30
2018-10-12T00:06:22.197Z,45.10
2018-10-12T00:08:54.197Z,45.70
2018-10-12T00:11:25.238Z,45.40
2018-10-12T00:13:58.236Z,45.30
2018-10-12T00:16:30.276Z,45.10
2018-10-12T00:19:01.857Z,45.20
2018-10-12T00:21:33.167Z,45.40
2018-10-12T00:24:05.547Z,45.10
2018-10-12T00:26:38.218Z,45.30
2018-10-12T00:29:09.827Z,45.30
2018-10-12T00:31:41.778Z,45.40
2018-10-12T00:34:13.958Z,45.70
2018-10-12T00:36:45.687Z,45.00
2018-10-12T00:39:18.777Z,45.40
2018-10-12T00:41:51.396Z,45.00
2018-10-12T00:44:22.710Z,44.90
2018-10-12T00:46:55.867Z,45.40
2018-10-12T00:49:27.848Z,45.00
2018-10-12T00:51:59.897Z,45.00
2018-10-12T00:54:31.714Z,45.10
2018-10-12T00:57:04.518Z,45.30
2018-10-12T00:59:37.007Z,45.30
2018-10-12T01:02:09.928Z,45.20
2018-10-12T01:04:41.968Z,45.40
2018-10-12T01:07:14.859Z,45.40
2018-10-12T01:09:47.748Z,46.10
2018-10-12T01:12:34.239Z,45.70
2018-10-12T01:15:06.457Z,45.50
2018-10-12T01:17:38.827Z,45.20
2018-10-12T01:20:15.337Z,45.10
2018-10-12T01:22:47.117Z,45.70
2018-10-12T01:25:17.647Z,45.70
2018-10-12T01:27:49.346Z,45.50
2018-10-12T01:30:22.078Z,45.30
2018-10-12T01:33:06.656Z,45.30
2018-10-12T01:35:38.638Z,45.80
2018-10-12T01:38:09.918Z,45.60
2018-10-12T01:40:43.876Z,45.70
2018-10-12T01:43:15.297Z,45.60
2018-10-12T01:45:47.006Z,45.70
2018-10-12T01:48:18.447Z,45.40
2018-10-12T01:50:50.297Z,45.50
2018-10-12T01:53:22.352Z,46.00
2018-10-12T01:56:00.306Z,46.20
2018-10-12T01:58:32.808Z,45.80
2018-10-12T02:01:03.505Z,45.70
2018-10-12T02:03:35.414Z,45.70
2018-10-12T02:06:07.204Z,45.50
2018-10-12T02:08:38.374Z,45.40
2018-10-12T02:11:09.853Z,45.30
2018-10-12T02:13:41.627Z,45.60
2018-10-12T02:16:13.907Z,45.70
2018-10-12T02:18:44.935Z,45.50
2018-10-12T02:21:17.083Z,46.10
2018-10-12T02:23:47.894Z,46.00
2018-10-12T02:26:18.074Z,45.80
2018-10-12T02:28:49.303Z,45.70
2018-10-12T02:31:20.858Z,45.70
2018-10-12T02:33:52.245Z,45.30
2018-10-12T02:36:24.014Z,45.80
2018-10-12T02:38:55.165Z,45.90
2018-10-12T02:41:25.505Z,45.70
2018-10-12T02:43:57.436Z,45.60
2018-10-12T02:46:28.746Z,45.40
2018-10-12T02:49:00.604Z,45.90
2018-10-12T02:51:33.244Z,45.60
2018-10-12T02:54:04.475Z,45.80
2018-10-12T02:56:36.696Z,45.50
2018-10-12T02:59:08.944Z,45.50
2018-10-12T03:01:39.625Z,45.50
2018-10-12T03:04:11.125Z,45.90
2018-10-12T03:06:41.815Z,45.90
2018-10-12T03:09:13.695Z,46.20
2018-10-12T03:11:45.963Z,46.30
2018-10-12T03:14:19.134Z,45.90
2018-10-12T03:16:52.305Z,45.90
2018-10-12T03:19:23.714Z,46.10
2018-10-12T03:21:54.163Z,45.80
2018-10-12T03:24:24.476Z,45.90
2018-10-12T03:26:56.225Z,46.10
2018-10-12T03:29:28.195Z,46.20
2018-10-12T03:32:00.784Z,46.20
2018-10-12T03:34:33.554Z,46.80
2018-10-12T03:37:05.119Z,46.40
2018-10-12T03:39:36.534Z,46.30
2018-10-12T03:42:11.705Z,46.30
2018-10-12T03:44:42.715Z,46.80
2018-10-12T03:47:14.165Z,46.20
2018-10-12T03:49:46.254Z,46.60
2018-10-12T03:52:18.394Z,46.70
2018-10-12T03:54:51.005Z,46.70
2018-10-12T03:57:21.834Z,46.70
2018-10-12T03:59:53.595Z,46.60
2018-10-12T04:02:25.454Z,46.80
2018-10-12T04:04:56.554Z,47.20
2018-10-12T04:07:28.144Z,47.30
2018-10-12T04:09:59.504Z,47.60
2018-10-12T04:12:31.605Z,47.20
2018-10-12T04:15:03.223Z,47.20
2018-10-12T04:17:36.084Z,47.60
2018-10-12T04:20:08.175Z,47.60
2018-10-12T04:22:39.925Z,47.60
2018-10-12T04:25:11.675Z,48.30
2018-10-12T04:27:45.565Z,48.40
2018-10-12T04:30:17.558Z,48.10
2018-10-12T04:32:51.156Z,48.00
2018-10-12T04:35:22.624Z,48.10
2018-10-12T04:37:53.916Z,48.00
2018-10-12T04:41:31.504Z,48.70
2018-10-12T04:44:03.796Z,48.70
2018-10-12T04:46:40.144Z,48.40
2018-10-12T04:49:13.079Z,48.60
2018-10-12T04:51:48.524Z,48.70
2018-10-12T04:54:21.445Z,49.30
2018-10-12T04:56:53.284Z,49.50
2018-10-12T04:59:24.784Z,49.10
2018-10-12T05:01:56.935Z,48.70
2018-10-12T05:04:28.216Z,48.90
2018-10-12T05:07:00.096Z,49.00
2018-10-12T05:09:31.355Z,48.90
2018-10-12T05:12:02.834Z,48.70
2018-10-12T05:14:34.375Z,49.10
2018-10-12T05:17:07.124Z,49.00
2018-10-12T05:19:38.756Z,48.90
2018-10-12T05:22:10.397Z,48.80
2018-10-12T05:24:41.904Z,48.70
2018-10-12T05:27:13.745Z,49.40
2018-10-12T05:29:45.005Z,49.40
2018-10-12T05:32:16.644Z,49.60
2018-10-12T05:34:48.294Z,49.80
2018-10-12T05:37:19.414Z,49.70
2018-10-12T05:39:50.335Z,49.80
2018-10-12T05:42:21.948Z,49.70
2018-10-12T05:44:53.237Z,49.70
2018-10-12T05:47:24.524Z,50.00
2018-10-12T05:50:04.634Z,50.40
2018-10-12T05:52:36.293Z,50.50
2018-10-12T05:55:08.264Z,50.40
2018-10-12T05:57:44.993Z,50.50
2018-10-12T06:00:15.205Z,51.00
2018-10-12T06:02:46.044Z,50.60
2018-10-12T06:05:17.365Z,50.40
2018-10-12T06:07:48.948Z,49.90
2018-10-12T06:10:21.683Z,50.60
2018-10-12T06:12:53.065Z,50.40
2018-10-12T06:15:24.940Z,50.80
2018-10-12T06:17:59.605Z,50.50
2018-10-12T06:20:31.694Z,50.20
2018-10-12T06:23:02.795Z,50.50
2018-10-12T06:25:34.277Z,51.00
2018-10-12T06:28:05.618Z,51.00
2018-10-12T06:30:37.204Z,50.70
2018-10-12T06:33:08.303Z,51.20
2018-10-12T06:35:39.614Z,51.30
2018-10-12T06:38:18.860Z,51.90
2018-10-12T06:40:52.372Z,52.00
2018-10-12T06:43:23.892Z,51.10
2018-10-12T06:46:03.654Z,51.60
2018-10-12T06:48:43.749Z,53.00
2018-10-12T06:51:16.889Z,52.10
2018-10-12T06:53:47.178Z,51.60
2018-10-12T06:56:17.529Z,52.10
2018-10-12T06:58:47.463Z,53.00
2018-10-12T07:01:19.239Z,52.40
2018-10-12T07:03:51.250Z,52.50
2018-10-12T07:06:30.772Z,53.00
2018-10-12T07:09:11.271Z,53.60
2018-10-12T07:11:49.882Z,53.90
2018-10-12T07:14:29.677Z,53.50
2018-10-12T07:17:09.921Z,52.90
2018-10-12T07:19:41.414Z,53.00
2018-10-12T07:22:13.680Z,52.70
2018-10-12T07:24:45.584Z,52.50
2018-10-12T07:27:16.740Z,53.20
2018-10-12T07:29:49.124Z,53.20
2018-10-12T07:32:21.802Z,52.80
2018-10-12T07:35:01.184Z,52.70
2018-10-12T07:37:32.373Z,50.90
2018-10-12T07:40:03.786Z,50.10
2018-10-12T07:42:35.209Z,50.20
2018-10-12T07:45:15.291Z,49.80
2018-10-12T07:47:46.992Z,51.10
2018-10-12T07:50:19.672Z,49.80
2018-10-12T07:53:00.303Z,49.40
2018-10-12T07:55:31.102Z,49.80
2018-10-12T07:58:02.662Z,49.20
2018-10-12T08:00:34.845Z,49.40
2018-10-12T08:03:05.960Z,49.10
2018-10-12T08:05:37.300Z,48.40
2018-10-12T08:08:07.631Z,48.40
2018-10-12T08:10:44.421Z,47.60
2018-10-12T08:13:16.664Z,47.80
2018-10-12T08:15:51.511Z,48.00
2018-10-12T08:18:22.241Z,47.70
2018-10-12T08:20:54.932Z,47.70
2018-10-12T08:23:25.461Z,47.60
2018-10-12T08:25:57.873Z,47.30
2018-10-12T08:28:29.610Z,47.00
2018-10-12T08:31:02.525Z,46.40
2018-10-12T08:33:34.230Z,46.50
2018-10-12T08:36:13.964Z,45.80
2018-10-12T08:38:54.118Z,46.10
2018-10-12T08:41:35.987Z,45.80
2018-10-12T08:44:15.963Z,46.40
2018-10-12T08:46:55.518Z,47.00
2018-10-12T08:49:35.234Z,47.60
2018-10-12T08:52:14.804Z,45.80
2018-10-12T08:54:54.546Z,45.70
2018-10-12T08:57:33.987Z,44.80
2018-10-12T09:00:14.833Z,44.70
2018-10-12T09:02:55.544Z,44.90
2018-10-12T09:05:32.578Z,44.10
2018-10-12T09:08:08.781Z,43.80
2018-10-12T09:10:44.524Z,44.00
2018-10-12T09:13:23.720Z,42.70
2018-10-12T09:16:01.288Z,42.90
2018-10-12T09:18:36.024Z,43.50
2018-10-12T09:21:12.403Z,43.20
2018-10-12T09:23:49.038Z,42.40
2018-10-12T09:26:20.920Z,42.50
2018-10-12T09:28:52.808Z,41.80
2018-10-12T09:31:24.858Z,40.80
2018-10-12T09:33:56.587Z,41.00
2018-10-12T09:36:28.396Z,40.00
2018-10-12T09:39:00.117Z,40.10
2018-10-12T09:41:31.982Z,41.10
2018-10-12T09:44:03.968Z,39.90
2018-10-12T09:46:36.868Z,39.60
2018-10-12T09:49:11.423Z,39.70
2018-10-12T09:51:45.783Z,40.80
2018-10-12T09:54:21.488Z,39.50
2018-10-12T09:57:00.409Z,38.70
2018-10-12T09:59:32.198Z,39.10
2018-10-12T10:02:16.408Z,39.20
2018-10-12T10:04:59.156Z,39.40
2018-10-12T10:07:31.983Z,40.20
2018-10-12T10:10:11.061Z,39.20
2018-10-12T10:12:44.072Z,39.60
2018-10-12T10:15:19.637Z,41.10
2018-10-12T10:17:55.586Z,41.00
2018-10-12T10:20:33.048Z,41.30
2018-10-12T10:23:09.141Z,43.00
2018-10-12T10:25:42.673Z,42.50
2018-10-12T10:28:15.453Z,41.40
2018-10-12T10:30:54.493Z,42.10
2018-10-12T10:33:30.902Z,42.00
2018-10-12T10:36:09.738Z,43.50
2018-10-12T10:38:49.197Z,41.40
2018-10-12T10:41:26.727Z,42.50
2018-10-12T10:44:01.932Z,42.50
2018-10-12T10:46:41.178Z,42.90
2018-10-12T10:49:18.281Z,41.90
2018-10-12T10:51:53.546Z,41.80
2018-10-12T10:54:31.315Z,42.10
2018-10-12T10:57:07.313Z,41.40
2018-10-12T10:59:39.113Z,42.00
2018-10-12T11:02:14.110Z,42.80
2018-10-12T11:04:49.797Z,42.60
2018-10-12T11:07:29.004Z,43.30
2018-10-12T11:10:07.961Z,43.40
2018-10-12T11:12:40.538Z,43.20
2018-10-12T11:15:14.945Z,44.00
2018-10-12T11:17:45.928Z,44.20
2018-10-12T11:20:20.495Z,43.40
2018-10-12T11:22:50.374Z,42.40
2018-10-12T11:25:20.984Z,42.50
2018-10-12T11:27:51.096Z,43.10
2018-10-12T11:30:24.179Z,42.50
2018-10-12T11:32:54.479Z,41.60
2018-10-12T11:35:33.403Z,41.30
2018-10-12T11:38:12.285Z,42.10
2018-10-12T11:40:51.959Z,42.00
2018-10-12T11:43:33.055Z,42.50
2018-10-12T11:46:12.812Z,42.90
2018-10-12T11:48:43.800Z,42.20
2018-10-12T11:51:15.648Z,42.10
2018-10-12T11:53:46.170Z,42.60
2018-10-12T11:56:25.091Z,43.30
2018-10-12T11:59:04.129Z,42.60
2018-10-12T12:01:51.464Z,43.30
2018-10-12T12:04:30.234Z,44.30
2018-10-12T12:07:09.730Z,42.70
2018-10-12T12:09:49.126Z,42.50
2018-10-12T12:12:28.350Z,43.60
2018-10-12T12:15:07.730Z,43.70
2018-10-12T12:17:44.689Z,43.70
2018-10-12T12:20:21.751Z,42.30
2018-10-12T12:22:56.438Z,41.50
2018-10-12T12:25:34.278Z,41.10
2018-10-12T12:28:12.085Z,40.40
2018-10-12T12:30:48.067Z,40.20
2018-10-12T12:33:27.439Z,39.70
2018-10-12T12:36:08.709Z,39.20
2018-10-12T12:38:47.477Z,39.50
2018-10-12T12:41:26.691Z,39.40
2018-10-12T12:44:04.667Z,39.60
2018-10-12T12:46:42.385Z,39.60
2018-10-12T12:49:22.234Z,39.80
2018-10-12T12:52:01.113Z,39.90
2018-10-12T12:54:40.219Z,39.70
2018-10-12T12:57:19.138Z,40.30
2018-10-12T12:59:56.070Z,40.30
2018-10-12T13:02:31.984Z,40.10
2018-10-12T13:05:11.277Z,40.00
2018-10-12T13:07:50.209Z,40.00
2018-10-12T13:10:29.710Z,40.60
2018-10-12T13:13:07.089Z,40.60
2018-10-12T13:15:46.136Z,40.90
2018-10-12T13:18:22.335Z,41.70
2018-10-12T13:21:03.401Z,41.60
2018-10-12T13:23:43.375Z,40.60
2018-10-12T13:26:23.440Z,41.10
2018-10-12T13:28:59.401Z,41.10
2018-10-12T13:31:36.316Z,40.50
2018-10-12T13:34:12.014Z,41.60
2018-10-12T13:36:47.932Z,41.60
2018-10-12T13:39:25.242Z,40.90
2018-10-12T13:42:02.566Z,41.40
2018-10-12T13:44:38.182Z,40.70
2018-10-12T13:47:14.263Z,41.70
2018-10-12T13:49:54.893Z,42.00
2018-10-12T13:52:31.934Z,40.90
2018-10-12T13:55:08.195Z,41.00
2018-10-12T13:57:47.160Z,41.30
2018-10-12T14:00:19.595Z,41.10
2018-10-12T14:02:59.167Z,41.60
2018-10-12T14:05:39.298Z,42.30
2018-10-12T14:08:18.422Z,43.40
2018-10-12T14:10:54.674Z,42.80
2018-10-12T14:13:32.158Z,44.00
2018-10-12T14:16:12.630Z,42.50
2018-10-12T14:18:52.380Z,42.90
2018-10-12T14:21:31.871Z,44.40
2018-10-12T14:24:11.385Z,44.90
2018-10-12T14:26:51.128Z,44.40
2018-10-12T14:29:31.113Z,43.40
2018-10-12T14:32:10.899Z,43.80
2018-10-12T14:34:50.582Z,43.80
2018-10-12T14:37:30.094Z,44.00
2018-10-12T14:40:10.667Z,44.30
2018-10-12T14:42:49.717Z,44.10
2018-10-12T14:45:29.030Z,44.20
2018-10-12T14:48:09.190Z,43.70
2018-10-12T14:50:50.007Z,44.00
2018-10-12T14:53:29.264Z,44.20
2018-10-12T14:56:07.247Z,45.30
2018-10-12T14:58:43.831Z,45.10
2018-10-12T15:01:22.891Z,45.70
2018-10-12T15:04:03.290Z,44.90
2018-10-12T15:06:42.400Z,45.80
2018-10-12T15:09:22.323Z,46.10
2018-10-12T15:12:01.875Z,46.10
2018-10-12T15:14:42.884Z,45.80
2018-10-12T15:17:15.302Z,46.70
2018-10-12T15:19:50.777Z,46.20
2018-10-12T15:22:31.006Z,47.10
2018-10-12T15:25:10.921Z,47.80
2018-10-12T15:27:48.187Z,48.30
2018-10-12T15:30:28.129Z,47.60
2018-10-12T15:33:07.611Z,47.20
2018-10-12T15:35:46.685Z,47.00
2018-10-12T15:38:24.911Z,47.30
2018-10-12T15:41:04.485Z,47.00
2018-10-12T15:43:40.905Z,47.40
2018-10-12T15:46:20.262Z,48.90
2018-10-12T15:48:56.253Z,48.50
2018-10-12T15:51:36.429Z,48.10
2018-10-12T15:54:07.661Z,47.80
2018-10-12T15:56:39.440Z,49.00
2018-10-12T15:59:10.344Z,48.50
2018-10-12T16:01:45.680Z,48.80
2018-10-12T16:04:15.590Z,50.40
2018-10-12T16:06:45.911Z,51.20
2018-10-12T16:09:15.991Z,50.10
2018-10-12T16:11:50.011Z,50.40
2018-10-12T16:14:20.201Z,49.80
2018-10-12T16:16:50.441Z,50.30
2018-10-12T16:19:21.791Z,50.50
2018-10-12T16:21:53.480Z,51.10
2018-10-12T16:24:23.660Z,51.80
2018-10-12T16:26:57.881Z,53.00
2018-10-12T16:29:31.772Z,52.80
2018-10-12T16:32:04.170Z,53.50
2018-10-12T16:34:34.351Z,53.20
2018-10-12T16:37:06.120Z,53.30
2018-10-12T16:39:46.073Z,53.50
2018-10-12T16:42:17.704Z,54.10
2018-10-12T16:44:58.339Z,55.00
2018-10-12T16:47:37.755Z,54.80
2018-10-12T16:50:17.171Z,55.20
2018-10-12T16:52:56.901Z,55.70
2018-10-12T16:55:38.814Z,56.20
2018-10-12T16:58:12.532Z,56.60
2018-10-12T17:00:43.131Z,57.10
2018-10-12T17:03:22.795Z,57.80
2018-10-12T17:05:55.845Z,58.00
2018-10-12T17:08:31.837Z,58.30
2018-10-12T17:11:11.253Z,58.60
2018-10-12T17:13:50.645Z,58.90
2018-10-12T17:16:28.297Z,58.80
2018-10-12T17:19:05.870Z,59.10
2018-10-12T17:21:46.414Z,58.60
2018-10-12T17:24:24.984Z,58.60
2018-10-12T17:27:04.268Z,59.10
2018-10-12T17:29:41.913Z,59.50
2018-10-12T17:32:21.775Z,60.00
2018-10-12T17:34:59.684Z,60.10
2018-10-12T17:37:37.336Z,59.80
2018-10-12T17:40:17.656Z,60.10
2018-10-12T17:42:55.885Z,60.40
2018-10-12T17:45:33.270Z,60.00
2018-10-12T17:48:09.103Z,59.70
2018-10-12T17:50:49.588Z,59.40
2018-10-12T17:53:28.982Z,59.20
2018-10-12T17:56:06.739Z,59.00
2018-10-12T17:58:44.733Z,58.80
2018-10-12T18:01:21.741Z,59.10
2018-10-12T18:04:01.877Z,59.50
2018-10-12T18:06:33.697Z,59.40
2018-10-12T18:09:07.437Z,59.30
2018-10-12T18:11:43.767Z,59.50
2018-10-12T18:14:20.339Z,59.60
2018-10-12T18:16:57.632Z,59.80
2018-10-12T18:19:36.143Z,59.40
2018-10-12T18:22:16.048Z,59.40
2018-10-12T18:24:53.067Z,59.30
2018-10-12T18:27:30.636Z,59.10
2018-10-12T18:30:07.419Z,59.50
2018-10-12T18:32:47.358Z,59.50
2018-10-12T18:35:26.733Z,60.20
2018-10-12T18:38:03.417Z,60.40
2018-10-12T18:40:39.544Z,60.20
2018-10-12T18:43:18.275Z,60.20
2018-10-12T18:45:53.959Z,60.10
2018-10-12T18:48:27.592Z,60.30
2018-10-12T18:51:04.586Z,60.20
2018-10-12T18:53:40.971Z,60.30
2018-10-12T18:56:20.540Z,60.30
2018-10-12T18:58:57.077Z,60.40
2018-10-12T19:01:34.723Z,60.60
2018-10-12T19:04:10.940Z,61.10
2018-10-12T19:06:47.667Z,60.90
2018-10-12T19:09:27.385Z,60.80
2018-10-12T19:12:05.771Z,60.70
2018-10-12T19:14:45.065Z,61.50
2018-10-12T19:17:24.496Z,61.60
2018-10-12T19:20:03.912Z,61.30
2018-10-12T19:22:40.215Z,61.50
2018-10-12T19:25:13.794Z,61.50
2018-10-12T19:27:47.505Z,61.90
2018-10-12T19:30:26.299Z,62.10
2018-10-12T19:33:01.652Z,62.20
2018-10-12T19:35:41.748Z,61.90
2018-10-12T19:38:21.563Z,62.10
2018-10-12T19:41:01.732Z,62.10
2018-10-12T19:43:41.053Z,62.10
2018-10-12T19:46:19.535Z,62.60
2018-10-12T19:48:58.635Z,62.30
2018-10-12T19:51:36.917Z,62.60
2018-10-12T19:54:15.839Z,62.80
2018-10-12T19:56:52.019Z,62.60
2018-10-12T19:59:32.907Z,63.20
2018-10-12T20:02:05.148Z,63.30
2018-10-12T20:04:41.798Z,63.50
2018-10-12T20:07:19.555Z,63.50
2018-10-12T20:09:50.385Z,63.50
2018-10-12T20:12:21.775Z,63.60
2018-10-12T20:14:53.195Z,63.70
2018-10-12T20:17:24.434Z,63.90
2018-10-12T20:19:56.015Z,64.30
2018-10-12T20:22:29.004Z,64.30
2018-10-12T20:24:59.404Z,64.30
2018-10-12T20:27:30.584Z,64.20
2018-10-12T20:30:03.904Z,64.30
2018-10-12T20:32:35.414Z,64.30
2018-10-12T20:35:06.985Z,64.50
2018-10-12T20:37:38.104Z,64.70
2018-10-12T20:40:08.764Z,64.80
2018-10-12T20:42:39.734Z,64.90
2018-10-12T20:45:11.427Z,64.80
2018-10-12T20:47:42.653Z,65.00
2018-10-12T20:50:14.025Z,65.00
2018-10-12T20:52:52.968Z,65.20
2018-10-12T20:55:32.372Z,65.20
2018-10-12T20:58:17.410Z,65.30
2018-10-12T21:00:57.096Z,65.30
2018-10-12T21:03:28.905Z,65.40
2018-10-12T21:05:58.765Z,65.80
2018-10-12T21:08:29.574Z,65.70
2018-10-12T21:11:00.541Z,65.90
2018-10-12T21:13:32.834Z,65.90
2018-10-12T21:16:08.734Z,65.90
2018-10-12T21:18:42.914Z,65.70
2018-10-12T21:21:21.073Z,65.80
2018-10-12T21:23:52.724Z,65.80
2018-10-12T21:26:29.654Z,65.40
2018-10-12T21:29:04.074Z,65.30
2018-10-12T21:31:41.824Z,65.80
2018-10-12T21:34:13.227Z,65.70
2018-10-12T21:36:46.535Z,65.80
2018-10-12T21:39:20.255Z,65.60
2018-10-12T21:41:54.365Z,65.80
2018-10-12T21:44:32.804Z,65.70
2018-10-12T21:47:07.464Z,66.00
2018-10-12T21:49:42.885Z,66.00
2018-10-12T21:52:16.035Z,66.30
2018-10-12T21:54:51.686Z,66.90
2018-10-12T21:57:24.784Z,66.30
2018-10-12T21:59:57.554Z,66.30
2018-10-12T22:02:29.964Z,66.50
2018-10-12T22:05:02.295Z,66.60
2018-10-12T22:07:36.192Z,66.60
2018-10-12T22:10:09.553Z,66.60
2018-10-12T22:12:40.231Z,66.50
2018-10-12T22:15:12.004Z,66.60
2018-10-12T22:17:44.201Z,66.40
2018-10-12T22:20:16.503Z,66.40
2018-10-12T22:22:47.743Z,66.20
2018-10-12T22:25:26.615Z,66.50
2018-10-12T22:27:57.877Z,66.50
2018-10-12T22:30:36.835Z,66.50
2018-10-12T22:33:12.964Z,66.50
2018-10-12T22:35:52.029Z,66.70
2018-10-12T22:38:21.729Z,66.20
2018-10-12T22:40:53.138Z,66.30
2018-10-12T22:43:24.158Z,66.50
2018-10-12T22:45:54.369Z,66.60
2018-10-12T22:48:25.612Z,66.40
2018-10-12T22:50:57.220Z,66.50
2018-10-12T22:53:28.535Z,66.30
2018-10-12T22:56:04.249Z,65.10
2018-10-12T22:58:35.459Z,65.30
